sensor_id;sensor_type;location;lat;lon;timestamp;pressure;altitude;pressure_sealevel;temperature;humidity
17230;BME280;8731;50.364;8.958;2022-07-23T00:01:13;99996.16;;;22.32;65.90
17230;BME280;8731;50.364;8.958;2022-07-23T00:05:35;99991.22;;;22.38;66.25
17230;BME280;8731;50.364;8.958;2022-07-23T00:09:58;100006.91;;;22.41;65.95
17230;BME280;8731;50.364;8.958;2022-07-23T00:14:20;100012.09;;;22.41;66.17
17230;BME280;8731;50.364;8.958;2022-07-23T00:18:43;100005.88;;;22.17;68.15
17230;BME280;8731;50.364;8.958;2022-07-23T00:23:06;99992.44;;;22.06;66.98
17230;BME280;8731;50.364;8.958;2022-07-23T00:27:28;99981.81;;;21.63;69.44
17230;BME280;8731;50.364;8.958;2022-07-23T00:31:50;99992.03;;;21.40;71.17
17230;BME280;8731;50.364;8.958;2022-07-23T00:36:14;99988.66;;;21.80;67.63
17230;BME280;8731;50.364;8.958;2022-07-23T00:40:37;99973.38;;;21.86;66.96
17230;BME280;8731;50.364;8.958;2022-07-23T00:45:00;99984.50;;;21.84;66.78
17230;BME280;8731;50.364;8.958;2022-07-23T00:49:23;99998.47;;;21.87;67.94
17230;BME280;8731;50.364;8.958;2022-07-23T00:53:48;100007.00;;;21.85;67.93
17230;BME280;8731;50.364;8.958;2022-07-23T00:58:11;100007.00;;;21.85;67.83
17230;BME280;8731;50.364;8.958;2022-07-23T01:02:33;100005.84;;;21.78;68.17
17230;BME280;8731;50.364;8.958;2022-07-23T01:06:56;100001.03;;;21.49;71.89
17230;BME280;8731;50.364;8.958;2022-07-23T01:11:21;99980.44;;;21.52;69.36
17230;BME280;8731;50.364;8.958;2022-07-23T01:15:44;99969.19;;;21.51;70.97
17230;BME280;8731;50.364;8.958;2022-07-23T01:20:08;99974.16;;;21.47;71.77
17230;BME280;8731;50.364;8.958;2022-07-23T01:24:32;99962.09;;;21.47;71.67
17230;BME280;8731;50.364;8.958;2022-07-23T01:28:58;99965.63;;;21.12;74.39
17230;BME280;8731;50.364;8.958;2022-07-23T01:33:20;99973.16;;;21.25;73.13
17230;BME280;8731;50.364;8.958;2022-07-23T01:37:43;99980.63;;;21.19;72.43
17230;BME280;8731;50.364;8.958;2022-07-23T01:42:08;99988.19;;;21.14;72.64
17230;BME280;8731;50.364;8.958;2022-07-23T01:46:31;99977.09;;;20.99;73.00
17230;BME280;8731;50.364;8.958;2022-07-23T01:50:54;99988.53;;;21.04;72.49
17230;BME280;8731;50.364;8.958;2022-07-23T01:55:27;99997.22;;;20.87;74.23
17230;BME280;8731;50.364;8.958;2022-07-23T01:59:51;99993.34;;;20.79;75.34
17230;BME280;8731;50.364;8.958;2022-07-23T02:04:15;99981.38;;;20.63;75.92
17230;BME280;8731;50.364;8.958;2022-07-23T02:08:38;99990.69;;;20.77;74.02
17230;BME280;8731;50.364;8.958;2022-07-23T02:13:00;99991.19;;;20.70;74.53
17230;BME280;8731;50.364;8.958;2022-07-23T02:17:24;99988.91;;;20.76;73.49
17230;BME280;8731;50.364;8.958;2022-07-23T02:21:47;99973.28;;;20.57;76.55
17230;BME280;8731;50.364;8.958;2022-07-23T02:26:13;99972.78;;;20.64;76.04
17230;BME280;8731;50.364;8.958;2022-07-23T02:30:35;99972.91;;;20.49;77.73
17230;BME280;8731;50.364;8.958;2022-07-23T02:34:59;99983.41;;;20.52;76.55
17230;BME280;8731;50.364;8.958;2022-07-23T02:39:22;99978.25;;;20.52;75.77
17230;BME280;8731;50.364;8.958;2022-07-23T02:43:44;99983.38;;;20.35;76.86
17230;BME280;8731;50.364;8.958;2022-07-23T02:48:09;100003.16;;;20.50;76.78
17230;BME280;8731;50.364;8.958;2022-07-23T02:52:34;100012.59;;;20.50;76.63
17230;BME280;8731;50.364;8.958;2022-07-23T02:56:56;100024.19;;;20.40;77.53
17230;BME280;8731;50.364;8.958;2022-07-23T03:01:20;100018.84;;;20.37;77.27
17230;BME280;8731;50.364;8.958;2022-07-23T03:05:43;100024.53;;;20.14;80.61
17230;BME280;8731;50.364;8.958;2022-07-23T03:10:07;100037.25;;;20.27;77.62
17230;BME280;8731;50.364;8.958;2022-07-23T03:14:30;100051.41;;;20.17;79.57
17230;BME280;8731;50.364;8.958;2022-07-23T03:18:52;100044.47;;;20.00;80.77
17230;BME280;8731;50.364;8.958;2022-07-23T03:23:16;100047.53;;;20.09;79.04
17230;BME280;8731;50.364;8.958;2022-07-23T03:27:39;100061.34;;;19.93;81.02
17230;BME280;8731;50.364;8.958;2022-07-23T03:32:03;100048.00;;;19.86;81.10
17230;BME280;8731;50.364;8.958;2022-07-23T03:36:26;100059.88;;;19.66;81.69
17230;BME280;8731;50.364;8.958;2022-07-23T03:40:50;100052.56;;;19.59;83.22
17230;BME280;8731;50.364;8.958;2022-07-23T03:45:13;100052.69;;;19.46;84.40
17230;BME280;8731;50.364;8.958;2022-07-23T03:49:36;100050.28;;;19.34;85.36
17230;BME280;8731;50.364;8.958;2022-07-23T03:53:59;100054.41;;;19.30;84.26
17230;BME280;8731;50.364;8.958;2022-07-23T03:58:21;100054.94;;;19.25;84.91
17230;BME280;8731;50.364;8.958;2022-07-23T04:02:44;100050.06;;;19.15;85.05
17230;BME280;8731;50.364;8.958;2022-07-23T04:07:07;100048.56;;;19.18;83.47
17230;BME280;8731;50.364;8.958;2022-07-23T04:11:29;100036.06;;;19.26;83.35
17230;BME280;8731;50.364;8.958;2022-07-23T04:15:52;100038.72;;;18.96;87.60
17230;BME280;8731;50.364;8.958;2022-07-23T04:20:16;100048.06;;;18.94;86.03
17230;BME280;8731;50.364;8.958;2022-07-23T04:24:46;100066.25;;;19.12;84.31
17230;BME280;8731;50.364;8.958;2022-07-23T04:29:10;100054.78;;;19.22;85.49
17230;BME280;8731;50.364;8.958;2022-07-23T04:33:32;100061.28;;;19.15;82.75
17230;BME280;8731;50.364;8.958;2022-07-23T04:38:01;100070.63;;;19.28;85.07
17230;BME280;8731;50.364;8.958;2022-07-23T04:42:24;100084.50;;;19.30;85.99
17230;BME280;8731;50.364;8.958;2022-07-23T04:46:46;100088.38;;;19.38;82.27
17230;BME280;8731;50.364;8.958;2022-07-23T04:51:09;100088.19;;;19.50;84.52
17230;BME280;8731;50.364;8.958;2022-07-23T04:55:32;100084.09;;;19.68;83.12
17230;BME280;8731;50.364;8.958;2022-07-23T04:59:55;100078.16;;;19.54;84.67
17230;BME280;8731;50.364;8.958;2022-07-23T05:04:17;100079.28;;;19.59;84.61
17230;BME280;8731;50.364;8.958;2022-07-23T05:08:41;100070.81;;;19.93;83.21
17230;BME280;8731;50.364;8.958;2022-07-23T05:13:06;100075.19;;;20.43;79.56
17230;BME280;8731;50.364;8.958;2022-07-23T05:17:28;100074.47;;;20.79;78.69
17230;BME280;8731;50.364;8.958;2022-07-23T05:21:51;100078.22;;;21.20;75.74
17230;BME280;8731;50.364;8.958;2022-07-23T05:26:13;100085.75;;;21.32;75.28
17230;BME280;8731;50.364;8.958;2022-07-23T05:30:36;100104.91;;;21.90;72.99
17230;BME280;8731;50.364;8.958;2022-07-23T05:35:02;100111.66;;;22.04;71.63
17230;BME280;8731;50.364;8.958;2022-07-23T05:39:24;100102.09;;;22.42;70.59
17230;BME280;8731;50.364;8.958;2022-07-23T05:43:47;100103.13;;;23.05;68.78
17230;BME280;8731;50.364;8.958;2022-07-23T05:48:10;100105.00;;;22.69;68.67
17230;BME280;8731;50.364;8.958;2022-07-23T05:52:44;100115.56;;;22.72;68.83
17230;BME280;8731;50.364;8.958;2022-07-23T05:57:22;100108.38;;;23.48;65.07
17230;BME280;8731;50.364;8.958;2022-07-23T06:01:44;100098.13;;;23.74;64.36
17230;BME280;8731;50.364;8.958;2022-07-23T06:06:08;100109.25;;;23.49;64.61
17230;BME280;8731;50.364;8.958;2022-07-23T06:10:31;100109.88;;;23.86;63.59
17230;BME280;8731;50.364;8.958;2022-07-23T06:14:53;100122.44;;;23.97;62.58
17230;BME280;8731;50.364;8.958;2022-07-23T06:19:15;100119.50;;;23.89;63.00
17230;BME280;8731;50.364;8.958;2022-07-23T06:23:40;100124.34;;;24.25;61.39
17230;BME280;8731;50.364;8.958;2022-07-23T06:28:02;100126.84;;;24.44;60.65
17230;BME280;8731;50.364;8.958;2022-07-23T06:32:25;100137.97;;;23.10;64.77
17230;BME280;8731;50.364;8.958;2022-07-23T06:36:47;100132.72;;;23.30;64.87
17230;BME280;8731;50.364;8.958;2022-07-23T06:41:11;100132.81;;;24.41;60.76
17230;BME280;8731;50.364;8.958;2022-07-23T06:45:34;100135.03;;;25.29;59.06
17230;BME280;8731;50.364;8.958;2022-07-23T06:49:57;100133.22;;;25.79;57.94
17230;BME280;8731;50.364;8.958;2022-07-23T06:54:19;100152.09;;;25.72;56.79
17230;BME280;8731;50.364;8.958;2022-07-23T06:58:43;100149.81;;;26.40;55.91
17230;BME280;8731;50.364;8.958;2022-07-23T07:03:05;100153.50;;;26.78;54.85
17230;BME280;8731;50.364;8.958;2022-07-23T07:07:28;100146.38;;;26.72;55.09
17230;BME280;8731;50.364;8.958;2022-07-23T07:11:50;100154.06;;;26.98;52.75
17230;BME280;8731;50.364;8.958;2022-07-23T07:16:15;100153.47;;;27.08;53.84
17230;BME280;8731;50.364;8.958;2022-07-23T07:20:37;100157.78;;;27.40;52.70
17230;BME280;8731;50.364;8.958;2022-07-23T07:24:59;100158.25;;;27.60;52.41
17230;BME280;8731;50.364;8.958;2022-07-23T07:29:21;100168.91;;;27.32;52.55
17230;BME280;8731;50.364;8.958;2022-07-23T07:33:45;100178.38;;;27.97;51.25
17230;BME280;8731;50.364;8.958;2022-07-23T07:38:08;100183.44;;;27.91;50.25
17230;BME280;8731;50.364;8.958;2022-07-23T07:42:30;100189.22;;;27.43;51.86
17230;BME280;8731;50.364;8.958;2022-07-23T07:46:52;100192.88;;;28.22;50.30
17230;BME280;8731;50.364;8.958;2022-07-23T07:51:16;100199.75;;;28.17;50.84
17230;BME280;8731;50.364;8.958;2022-07-23T07:55:39;100207.78;;;27.87;49.63
17230;BME280;8731;50.364;8.958;2022-07-23T08:00:01;100212.72;;;27.42;51.29
17230;BME280;8731;50.364;8.958;2022-07-23T08:04:32;100204.97;;;28.16;50.12
17230;BME280;8731;50.364;8.958;2022-07-23T08:08:56;100206.69;;;28.54;49.45
17230;BME280;8731;50.364;8.958;2022-07-23T08:13:18;100222.44;;;28.56;49.49
17230;BME280;8731;50.364;8.958;2022-07-23T08:17:41;100219.94;;;28.21;50.26
17230;BME280;8731;50.364;8.958;2022-07-23T08:22:04;100212.56;;;28.42;48.93
17230;BME280;8731;50.364;8.958;2022-07-23T08:26:27;100214.38;;;28.45;49.54
17230;BME280;8731;50.364;8.958;2022-07-23T08:30:50;100222.25;;;28.87;48.74
17230;BME280;8731;50.364;8.958;2022-07-23T08:35:12;100221.31;;;28.43;48.03
17230;BME280;8731;50.364;8.958;2022-07-23T08:39:34;100229.78;;;29.14;47.31
17230;BME280;8731;50.364;8.958;2022-07-23T08:43:58;100229.25;;;28.46;48.08
17230;BME280;8731;50.364;8.958;2022-07-23T08:48:24;100224.03;;;29.86;47.29
17230;BME280;8731;50.364;8.958;2022-07-23T08:52:48;100228.75;;;30.06;46.03
17230;BME280;8731;50.364;8.958;2022-07-23T08:57:11;100231.63;;;30.24;46.78
17230;BME280;8731;50.364;8.958;2022-07-23T09:01:35;100233.19;;;30.10;44.98
17230;BME280;8731;50.364;8.958;2022-07-23T09:05:58;100237.06;;;30.36;44.83
17230;BME280;8731;50.364;8.958;2022-07-23T09:10:22;100225.69;;;30.37;43.71
17230;BME280;8731;50.364;8.958;2022-07-23T09:14:45;100221.31;;;31.07;43.51
17230;BME280;8731;50.364;8.958;2022-07-23T09:19:09;100223.09;;;31.13;43.20
17230;BME280;8731;50.364;8.958;2022-07-23T09:23:37;100223.25;;;31.24;41.13
17230;BME280;8731;50.364;8.958;2022-07-23T09:28:00;100226.47;;;29.76;43.32
17230;BME280;8731;50.364;8.958;2022-07-23T09:32:23;100230.81;;;30.98;42.08
17230;BME280;8731;50.364;8.958;2022-07-23T09:36:47;100229.91;;;31.78;41.49
17230;BME280;8731;50.364;8.958;2022-07-23T09:41:11;100233.50;;;31.89;39.99
17230;BME280;8731;50.364;8.958;2022-07-23T09:45:33;100228.59;;;31.31;39.55
17230;BME280;8731;50.364;8.958;2022-07-23T09:50:00;100220.63;;;31.24;39.40
17230;BME280;8731;50.364;8.958;2022-07-23T09:54:29;100222.91;;;31.81;38.24
17230;BME280;8731;50.364;8.958;2022-07-23T09:58:55;100230.31;;;31.28;39.46
17230;BME280;8731;50.364;8.958;2022-07-23T10:03:24;100216.03;;;31.06;38.64
17230;BME280;8731;50.364;8.958;2022-07-23T10:08:11;100227.47;;;32.08;36.80
17230;BME280;8731;50.364;8.958;2022-07-23T10:12:56;100221.69;;;32.67;36.62
17230;BME280;8731;50.364;8.958;2022-07-23T10:17:36;100223.34;;;32.42;35.96
17230;BME280;8731;50.364;8.958;2022-07-23T10:22:01;100216.44;;;32.78;34.43
17230;BME280;8731;50.364;8.958;2022-07-23T10:26:30;100213.78;;;32.76;35.02
17230;BME280;8731;50.364;8.958;2022-07-23T10:31:04;100207.81;;;33.90;34.33
17230;BME280;8731;50.364;8.958;2022-07-23T10:35:38;100214.84;;;33.97;33.67
17230;BME280;8731;50.364;8.958;2022-07-23T10:40:13;100215.69;;;34.19;33.44
17230;BME280;8731;50.364;8.958;2022-07-23T10:44:39;100220.94;;;34.42;30.86
17230;BME280;8731;50.364;8.958;2022-07-23T10:49:24;100209.94;;;35.26;31.63
17230;BME280;8731;50.364;8.958;2022-07-23T10:53:56;100216.59;;;34.16;32.94
17230;BME280;8731;50.364;8.958;2022-07-23T10:58:46;100212.53;;;35.36;31.16
17230;BME280;8731;50.364;8.958;2022-07-23T11:03:28;100213.16;;;35.66;31.46
17230;BME280;8731;50.364;8.958;2022-07-23T11:08:15;100201.94;;;35.36;31.14
17230;BME280;8731;50.364;8.958;2022-07-23T11:12:40;100200.91;;;35.56;30.78
17230;BME280;8731;50.364;8.958;2022-07-23T11:17:18;100213.03;;;34.31;31.66
17230;BME280;8731;50.364;8.958;2022-07-23T11:21:57;100205.97;;;34.32;31.14
17230;BME280;8731;50.364;8.958;2022-07-23T11:26:44;100213.09;;;33.52;32.50
17230;BME280;8731;50.364;8.958;2022-07-23T11:31:17;100206.94;;;33.45;31.98
17230;BME280;8731;50.364;8.958;2022-07-23T11:35:41;100196.38;;;33.44;33.23
17230;BME280;8731;50.364;8.958;2022-07-23T11:40:07;100196.34;;;33.80;32.53
17230;BME280;8731;50.364;8.958;2022-07-23T11:44:35;100196.38;;;33.65;32.54
17230;BME280;8731;50.364;8.958;2022-07-23T11:49:02;100192.84;;;33.49;32.86
17230;BME280;8731;50.364;8.958;2022-07-23T11:53:26;100191.94;;;33.29;33.15
17230;BME280;8731;50.364;8.958;2022-07-23T11:57:51;100186.66;;;33.26;33.60
17230;BME280;8731;50.364;8.958;2022-07-23T12:02:15;100187.97;;;32.14;34.34
17230;BME280;8731;50.364;8.958;2022-07-23T12:06:38;100176.88;;;32.79;34.07
17230;BME280;8731;50.364;8.958;2022-07-23T12:11:00;100179.44;;;32.62;33.78
17230;BME280;8731;50.364;8.958;2022-07-23T12:15:25;100177.66;;;32.55;34.19
17230;BME280;8731;50.364;8.958;2022-07-23T12:19:52;100165.38;;;32.65;34.28
17230;BME280;8731;50.364;8.958;2022-07-23T12:24:15;100179.25;;;32.24;34.34
17230;BME280;8731;50.364;8.958;2022-07-23T12:28:37;100172.03;;;31.93;35.13
17230;BME280;8731;50.364;8.958;2022-07-23T12:33:00;100161.31;;;31.68;34.51
17230;BME280;8731;50.364;8.958;2022-07-23T12:37:28;100162.56;;;31.11;35.48
17230;BME280;8731;50.364;8.958;2022-07-23T12:41:53;100158.69;;;31.70;35.66
17230;BME280;8731;50.364;8.958;2022-07-23T12:46:17;100160.53;;;31.74;36.03
17230;BME280;8731;50.364;8.958;2022-07-23T12:50:49;100157.78;;;31.66;35.16
17230;BME280;8731;50.364;8.958;2022-07-23T12:55:27;100157.91;;;31.79;35.27
17230;BME280;8731;50.364;8.958;2022-07-23T12:59:50;100155.47;;;32.11;34.92
17230;BME280;8731;50.364;8.958;2022-07-23T13:04:14;100152.81;;;32.03;34.50
17230;BME280;8731;50.364;8.958;2022-07-23T13:08:39;100153.53;;;31.78;35.41
17230;BME280;8731;50.364;8.958;2022-07-23T13:13:07;100156.34;;;32.11;35.10
17230;BME280;8731;50.364;8.958;2022-07-23T13:17:30;100159.34;;;31.40;34.76
17230;BME280;8731;50.364;8.958;2022-07-23T13:21:53;100155.59;;;32.29;34.60
17230;BME280;8731;50.364;8.958;2022-07-23T13:26:16;100156.47;;;32.29;33.85
17230;BME280;8731;50.364;8.958;2022-07-23T13:30:40;100151.19;;;32.29;34.27
17230;BME280;8731;50.364;8.958;2022-07-23T13:35:04;100159.13;;;32.31;34.27
17230;BME280;8731;50.364;8.958;2022-07-23T13:39:26;100154.47;;;31.92;35.49
17230;BME280;8731;50.364;8.958;2022-07-23T13:43:49;100158.22;;;32.30;34.70
17230;BME280;8731;50.364;8.958;2022-07-23T13:48:13;100149.47;;;32.41;33.40
17230;BME280;8731;50.364;8.958;2022-07-23T13:52:37;100146.06;;;32.66;34.36
17230;BME280;8731;50.364;8.958;2022-07-23T13:56:59;100152.81;;;32.03;35.26
17230;BME280;8731;50.364;8.958;2022-07-23T14:01:21;100159.19;;;32.46;34.55
17230;BME280;8731;50.364;8.958;2022-07-23T14:05:45;100143.56;;;31.40;35.40
17230;BME280;8731;50.364;8.958;2022-07-23T14:10:07;100146.66;;;32.09;35.01
17230;BME280;8731;50.364;8.958;2022-07-23T14:14:30;100149.16;;;31.80;35.77
17230;BME280;8731;50.364;8.958;2022-07-23T14:18:53;100148.50;;;32.22;34.52
17230;BME280;8731;50.364;8.958;2022-07-23T14:23:17;100160.88;;;32.30;34.59
17230;BME280;8731;50.364;8.958;2022-07-23T14:27:39;100155.59;;;32.29;34.55
17230;BME280;8731;50.364;8.958;2022-07-23T14:32:02;100155.59;;;32.26;34.81
17230;BME280;8731;50.364;8.958;2022-07-23T14:36:25;100149.34;;;32.16;34.39
17230;BME280;8731;50.364;8.958;2022-07-23T14:40:49;100151.84;;;31.92;34.84
17230;BME280;8731;50.364;8.958;2022-07-23T14:45:11;100150.94;;;31.84;34.66
17230;BME280;8731;50.364;8.958;2022-07-23T14:49:34;100151.06;;;32.13;34.77
17230;BME280;8731;50.364;8.958;2022-07-23T14:53:56;100153.78;;;32.25;34.29
17230;BME280;8731;50.364;8.958;2022-07-23T14:58:20;100151.22;;;32.32;33.96
17230;BME280;8731;50.364;8.958;2022-07-23T15:02:43;100152.81;;;32.06;33.99
17230;BME280;8731;50.364;8.958;2022-07-23T15:07:05;100142.22;;;31.97;33.82
17230;BME280;8731;50.364;8.958;2022-07-23T15:11:27;100151.91;;;31.98;34.21
17230;BME280;8731;50.364;8.958;2022-07-23T15:15:55;100146.47;;;31.72;33.66
17230;BME280;8731;50.364;8.958;2022-07-23T15:20:17;100148.28;;;31.81;32.97
17230;BME280;8731;50.364;8.958;2022-07-23T15:24:39;100143.75;;;31.67;33.42
17230;BME280;8731;50.364;8.958;2022-07-23T15:29:02;100155.19;;;31.69;32.87
17230;BME280;8731;50.364;8.958;2022-07-23T15:33:27;100156.75;;;31.46;32.61
17230;BME280;8731;50.364;8.958;2022-07-23T15:37:49;100155.09;;;31.57;32.67
17230;BME280;8731;50.364;8.958;2022-07-23T15:42:12;100158.22;;;31.13;33.11
17230;BME280;8731;50.364;8.958;2022-07-23T15:46:35;100155.78;;;31.32;33.54
17230;BME280;8731;50.364;8.958;2022-07-23T15:50:58;100155.91;;;31.47;32.92
17230;BME280;8731;50.364;8.958;2022-07-23T15:55:22;100150.28;;;31.10;32.88
17230;BME280;8731;50.364;8.958;2022-07-23T15:59:44;100150.31;;;31.13;33.71
17230;BME280;8731;50.364;8.958;2022-07-23T16:04:07;100147.03;;;31.33;33.09
17230;BME280;8731;50.364;8.958;2022-07-23T16:08:30;100150.50;;;31.32;33.22
17230;BME280;8731;50.364;8.958;2022-07-23T16:12:53;100145.44;;;30.65;34.04
17230;BME280;8731;50.364;8.958;2022-07-23T16:17:15;100142.84;;;30.67;33.49
17230;BME280;8731;50.364;8.958;2022-07-23T16:21:38;100131.84;;;31.04;33.82
17230;BME280;8731;50.364;8.958;2022-07-23T16:26:01;100136.75;;;30.71;33.95
17230;BME280;8731;50.364;8.958;2022-07-23T16:30:24;100134.84;;;30.59;34.17
17230;BME280;8731;50.364;8.958;2022-07-23T16:34:46;100140.38;;;30.83;33.13
17230;BME280;8731;50.364;8.958;2022-07-23T16:39:08;100136.84;;;30.80;33.74
17230;BME280;8731;50.364;8.958;2022-07-23T16:43:33;100130.47;;;30.60;33.85
17230;BME280;8731;50.364;8.958;2022-07-23T16:47:56;100141.03;;;30.63;34.33
17230;BME280;8731;50.364;8.958;2022-07-23T16:52:19;100133.81;;;30.46;33.96
17230;BME280;8731;50.364;8.958;2022-07-23T16:56:41;100139.31;;;30.00;34.39
17230;BME280;8731;50.364;8.958;2022-07-23T17:01:05;100144.72;;;30.07;34.55
17230;BME280;8731;50.364;8.958;2022-07-23T17:05:28;100148.03;;;29.97;34.50
17230;BME280;8731;50.364;8.958;2022-07-23T17:09:50;100145.59;;;30.08;33.57
17230;BME280;8731;50.364;8.958;2022-07-23T17:14:13;100160.34;;;30.01;34.15
17230;BME280;8731;50.364;8.958;2022-07-23T17:18:37;100159.34;;;29.91;34.38
17230;BME280;8731;50.364;8.958;2022-07-23T17:22:59;100154.38;;;30.10;33.73
17230;BME280;8731;50.364;8.958;2022-07-23T17:27:21;100160.28;;;29.98;34.05
17230;BME280;8731;50.364;8.958;2022-07-23T17:31:44;100161.19;;;29.99;33.93
17230;BME280;8731;50.364;8.958;2022-07-23T17:36:08;100166.00;;;29.68;34.54
17230;BME280;8731;50.364;8.958;2022-07-23T17:40:31;100167.22;;;29.91;34.95
17230;BME280;8731;50.364;8.958;2022-07-23T17:44:54;100173.22;;;29.81;34.66
17230;BME280;8731;50.364;8.958;2022-07-23T17:49:16;100165.47;;;29.92;34.50
17230;BME280;8731;50.364;8.958;2022-07-23T17:53:40;100172.22;;;29.76;34.46
17230;BME280;8731;50.364;8.958;2022-07-23T17:58:02;100181.75;;;29.68;34.42
17230;BME280;8731;50.364;8.958;2022-07-23T18:02:24;100183.41;;;29.63;34.64
17230;BME280;8731;50.364;8.958;2022-07-23T18:06:47;100194.56;;;29.50;34.48
17230;BME280;8731;50.364;8.958;2022-07-23T18:11:12;100193.59;;;29.45;34.81
17230;BME280;8731;50.364;8.958;2022-07-23T18:15:34;100208.31;;;29.37;34.84
17230;BME280;8731;50.364;8.958;2022-07-23T18:19:57;100199.38;;;29.27;34.93
17230;BME280;8731;50.364;8.958;2022-07-23T18:24:20;100198.34;;;29.17;34.79
17230;BME280;8731;50.364;8.958;2022-07-23T18:28:46;100204.31;;;29.10;35.20
17230;BME280;8731;50.364;8.958;2022-07-23T18:33:08;100201.44;;;28.95;35.41
17230;BME280;8731;50.364;8.958;2022-07-23T18:37:33;100213.41;;;28.84;35.84
17230;BME280;8731;50.364;8.958;2022-07-23T18:41:56;100215.91;;;28.78;35.80
17230;BME280;8731;50.364;8.958;2022-07-23T18:46:20;100220.94;;;28.67;36.53
17230;BME280;8731;50.364;8.958;2022-07-23T18:50:43;100230.38;;;28.60;36.40
17230;BME280;8731;50.364;8.958;2022-07-23T18:55:07;100224.09;;;28.51;36.69
17230;BME280;8731;50.364;8.958;2022-07-23T18:59:29;100235.31;;;28.45;36.61
17230;BME280;8731;50.364;8.958;2022-07-23T19:03:53;100233.94;;;28.23;36.76
17230;BME280;8731;50.364;8.958;2022-07-23T19:08:16;100242.44;;;28.14;37.10
17230;BME280;8731;50.364;8.958;2022-07-23T19:12:38;100238.78;;;28.06;37.34
17230;BME280;8731;50.364;8.958;2022-07-23T19:17:00;100243.59;;;27.90;37.64
17230;BME280;8731;50.364;8.958;2022-07-23T19:21:24;100251.16;;;27.76;37.88
17230;BME280;8731;50.364;8.958;2022-07-23T19:25:46;100254.28;;;27.63;37.75
17230;BME280;8731;50.364;8.958;2022-07-23T19:30:10;100259.53;;;27.31;38.85
17230;BME280;8731;50.364;8.958;2022-07-23T19:34:33;100271.06;;;27.06;39.14
17230;BME280;8731;50.364;8.958;2022-07-23T19:38:57;100278.19;;;27.12;39.10
17230;BME280;8731;50.364;8.958;2022-07-23T19:43:19;100281.94;;;26.91;40.00
17230;BME280;8731;50.364;8.958;2022-07-23T19:47:41;100295.03;;;26.93;40.14
17230;BME280;8731;50.364;8.958;2022-07-23T19:52:05;100301.69;;;26.82;40.75
17230;BME280;8731;50.364;8.958;2022-07-23T19:56:30;100307.38;;;26.69;41.19
17230;BME280;8731;50.364;8.958;2022-07-23T20:00:52;100304.59;;;26.63;41.67
17230;BME280;8731;50.364;8.958;2022-07-23T20:05:15;100315.56;;;26.51;42.23
17230;BME280;8731;50.364;8.958;2022-07-23T20:09:37;100317.22;;;26.49;42.10
17230;BME280;8731;50.364;8.958;2022-07-23T20:14:01;100321.19;;;26.36;43.08
17230;BME280;8731;50.364;8.958;2022-07-23T20:18:24;100324.91;;;26.17;42.44
17230;BME280;8731;50.364;8.958;2022-07-23T20:22:48;100322.09;;;26.11;43.36
17230;BME280;8731;50.364;8.958;2022-07-23T20:27:10;100326.19;;;26.03;43.65
17230;BME280;8731;50.364;8.958;2022-07-23T20:31:34;100331.84;;;25.90;44.94
17230;BME280;8731;50.364;8.958;2022-07-23T20:35:56;100344.25;;;25.72;45.32
17230;BME280;8731;50.364;8.958;2022-07-23T20:40:18;100329.19;;;25.64;44.88
17230;BME280;8731;50.364;8.958;2022-07-23T20:44:41;100338.72;;;25.15;47.45
17230;BME280;8731;50.364;8.958;2022-07-23T20:49:05;100336.47;;;25.01;47.51
17230;BME280;8731;50.364;8.958;2022-07-23T20:53:29;100347.72;;;25.00;47.85
17230;BME280;8731;50.364;8.958;2022-07-23T20:57:51;100343.69;;;24.64;48.50
17230;BME280;8731;50.364;8.958;2022-07-23T21:02:13;100360.44;;;24.70;47.46
17230;BME280;8731;50.364;8.958;2022-07-23T21:06:37;100353.34;;;24.89;47.82
17230;BME280;8731;50.364;8.958;2022-07-23T21:10:59;100369.59;;;24.83;47.66
17230;BME280;8731;50.364;8.958;2022-07-23T21:15:22;100365.38;;;24.85;46.76
17230;BME280;8731;50.364;8.958;2022-07-23T21:19:45;100367.59;;;24.76;47.15
17230;BME280;8731;50.364;8.958;2022-07-23T21:24:09;100360.97;;;24.62;46.74
17230;BME280;8731;50.364;8.958;2022-07-23T21:28:31;100381.44;;;24.53;47.80
17230;BME280;8731;50.364;8.958;2022-07-23T21:32:53;100379.63;;;23.89;50.35
17230;BME280;8731;50.364;8.958;2022-07-23T21:37:16;100387.88;;;24.00;50.42
17230;BME280;8731;50.364;8.958;2022-07-23T21:41:39;100381.28;;;24.08;49.84
17230;BME280;8731;50.364;8.958;2022-07-23T21:46:02;100390.44;;;24.19;49.80
17230;BME280;8731;50.364;8.958;2022-07-23T21:50:25;100389.75;;;24.23;48.97
17230;BME280;8731;50.364;8.958;2022-07-23T21:54:47;100388.66;;;24.18;49.06
17230;BME280;8731;50.364;8.958;2022-07-23T21:59:11;100396.72;;;24.03;47.27
17230;BME280;8731;50.364;8.958;2022-07-23T22:03:33;100394.03;;;24.02;48.80
17230;BME280;8731;50.364;8.958;2022-07-23T22:07:55;100415.56;;;23.20;53.24
17230;BME280;8731;50.364;8.958;2022-07-23T22:12:18;100419.91;;;23.41;50.47
17230;BME280;8731;50.364;8.958;2022-07-23T22:16:42;100420.78;;;23.59;51.48
17230;BME280;8731;50.364;8.958;2022-07-23T22:21:04;100420.72;;;23.57;52.05
17230;BME280;8731;50.364;8.958;2022-07-23T22:25:26;100421.31;;;23.52;52.40
17230;BME280;8731;50.364;8.958;2022-07-23T22:29:49;100430.63;;;23.47;52.39
17230;BME280;8731;50.364;8.958;2022-07-23T22:34:13;100427.34;;;23.51;51.45
17230;BME280;8731;50.364;8.958;2022-07-23T22:38:35;100429.78;;;23.48;51.62
17230;BME280;8731;50.364;8.958;2022-07-23T22:42:57;100431.31;;;23.43;51.49
17230;BME280;8731;50.364;8.958;2022-07-23T22:47:19;100433.75;;;23.40;51.47
17230;BME280;8731;50.364;8.958;2022-07-23T22:51:43;100432.66;;;23.35;51.80
17230;BME280;8731;50.364;8.958;2022-07-23T22:56:06;100430.81;;;23.32;51.68
17230;BME280;8731;50.364;8.958;2022-07-23T23:00:28;100428.97;;;23.30;51.62
17230;BME280;8731;50.364;8.958;2022-07-23T23:04:51;100424.00;;;23.16;52.72
17230;BME280;8731;50.364;8.958;2022-07-23T23:09:14;100429.81;;;23.11;53.05
17230;BME280;8731;50.364;8.958;2022-07-23T23:13:37;100431.91;;;23.00;53.69
17230;BME280;8731;50.364;8.958;2022-07-23T23:17:59;100423.69;;;22.91;53.73
17230;BME280;8731;50.364;8.958;2022-07-23T23:22:21;100423.16;;;22.80;54.25